Time;durP1;ratioP1;P1;durP2;ratioP2;P2;SDS_P1;SDS_P2;PMS_P1;PMS_P2;Temp;Humidity;BMP_temperature;BMP_pressure;BME280_temperature;BME280_humidity;BME280_pressure;Samples;Min_cycle;Max_cycle;Signal;HPM_P1;HPM_P2
2022/07/22 00:02:48;;;;;;;;;10.00;9.00;;;;;28.06;37.06;98797.78;6088942;28;97268;-59
2022/07/22 00:05:52;;;;;;;;;9.50;8.25;;;;;28.01;37.59;98800.75;6086117;28;96997;-62
2022/07/22 00:08:56;;;;;;;;;12.00;11.00;;;;;28.02;37.26;98800.44;6084194;28;98100;-61
2022/07/22 00:12:02;;;;;;;;;11.80;10.80;;;;;28.06;37.60;98803.34;6087364;28;96958;-61
2022/07/22 00:15:07;;;;;;;;;11.00;10.00;;;;;27.92;37.20;98786.16;6084772;28;96763;-64
2022/07/22 00:18:10;;;;;;;;;14.00;13.00;;;;;28.06;37.26;98817.19;6087245;28;96759;-63
2022/07/22 00:21:14;;;;;;;;;12.00;11.60;;;;;28.02;37.34;98825.38;6088257;28;97927;-64
2022/07/22 00:24:17;;;;;;;;;12.50;12.00;;;;;28.03;37.83;98820.66;6083188;28;98743;-65
2022/07/22 00:27:22;;;;;;;;;12.00;11.00;;;;;28.05;37.41;98812.81;6090237;28;96638;-65
2022/07/22 00:30:27;;;;;;;;;11.80;11.20;;;;;28.04;38.33;98808.41;6090525;28;97348;-65
2022/07/22 00:33:31;;;;;;;;;11.33;11.33;;;;;28.02;37.81;98807.94;6090715;28;97015;-65
2022/07/22 00:36:35;;;;;;;;;13.80;12.20;;;;;27.99;37.58;98809.44;6091232;28;97364;-64
2022/07/22 00:39:39;;;;;;;;;15.00;14.00;;;;;27.99;38.14;98814.16;6087954;28;96738;-64
2022/07/22 00:42:44;;;;;;;;;14.00;14.00;;;;;27.98;37.96;98813.34;6089548;28;97159;-66
2022/07/22 00:45:48;;;;;;;;;14.50;13.00;;;;;27.97;38.54;98805.38;6090870;28;97515;-61
2022/07/22 00:48:52;;;;;;;;;13.00;12.00;;;;;27.92;38.58;98811.94;6082126;28;96940;-63
2022/07/22 00:51:56;;;;;;;;;12.60;12.00;;;;;27.90;38.77;98814.25;6091016;28;97451;-60
2022/07/22 00:55:01;;;;;;;;;12.40;11.40;;;;;27.87;38.32;98809.34;6088579;28;97251;-60
2022/07/22 00:58:05;;;;;;;;;12.00;10.80;;;;;27.82;38.56;98805.97;6091571;28;97217;-62
2022/07/22 01:01:10;;;;;;;;;12.00;12.00;;;;;27.77;39.22;98804.22;6089004;28;97423;-65
2022/07/22 01:04:15;;;;;;;;;12.00;12.00;;;;;27.70;39.21;98808.69;6088373;28;97322;-62
2022/07/22 01:07:18;;;;;;;;;14.20;13.20;;;;;27.66;39.49;98805.75;6087203;28;97124;-62
2022/07/22 01:10:22;;;;;;;;;12.00;12.00;;;;;27.65;39.72;98806.91;6088472;28;97029;-62
2022/07/22 01:13:27;;;;;;;;;11.00;10.00;;;;;27.62;39.79;98806.75;6078755;28;97513;-62
2022/07/22 01:16:30;;;;;;;;;10.40;10.40;;;;;27.56;39.89;98812.50;6084681;28;96722;-63
2022/07/22 01:19:36;;;;;;;;;12.00;11.00;;;;;27.54;39.72;98819.53;6089696;28;97128;-65
2022/07/22 01:22:41;;;;;;;;;11.00;10.00;;;;;27.52;40.14;98810.72;6089463;28;96695;-63
2022/07/22 01:25:45;;;;;;;;;14.00;13.00;;;;;27.50;40.17;98810.28;6088956;28;97107;-63
2022/07/22 01:28:49;;;;;;;;;15.00;13.60;;;;;27.45;40.03;98808.47;6089892;28;96389;-63
2022/07/22 01:31:52;;;;;;;;;11.00;11.00;;;;;27.41;40.15;98801.16;6084094;28;97320;-62
2022/07/22 01:34:56;;;;;;;;;11.00;11.00;;;;;27.37;40.74;98800.19;6072797;28;97314;-61
2022/07/22 01:38:01;;;;;;;;;12.80;12.80;;;;;27.33;40.48;98804.78;6090278;28;96781;-63
2022/07/22 01:41:05;;;;;;;;;13.20;11.80;;;;;27.31;40.47;98810.66;6086063;28;97631;-63
2022/07/22 01:44:08;;;;;;;;;13.00;12.40;;;;;27.30;40.71;98809.03;6087654;28;97527;-60
2022/07/22 01:47:12;;;;;;;;;12.60;12.60;;;;;27.28;40.59;98803.00;6088001;28;97122;-63
2022/07/22 01:50:15;;;;;;;;;17.00;15.00;;;;;27.26;40.32;98801.75;6085966;28;100244;-62
2022/07/22 01:53:21;;;;;;;;;13.60;12.60;;;;;27.22;40.77;98798.03;6099538;28;96710;-63
2022/07/22 01:56:24;;;;;;;;;12.00;12.00;;;;;27.04;40.83;98778.72;6088341;28;97994;-62
2022/07/22 01:59:28;;;;;;;;;14.00;14.00;;;;;27.07;41.04;98796.63;6087616;28;97501;-63
2022/07/22 02:02:31;;;;;;;;;16.60;14.80;;;;;27.01;40.95;98804.28;6069519;28;97260;-63
2022/07/22 02:05:35;;;;;;;;;12.60;11.60;;;;;26.97;41.37;98810.81;6087971;28;97013;-62
2022/07/22 02:08:48;;;;;;;;;16.00;15.00;;;;;26.95;41.56;98813.91;6087614;28;97751;-62
2022/07/22 02:12:13;;;;;;;;;15.20;13.40;;;;;26.95;41.56;98813.91;6079278;28;97459;-63
2022/07/22 02:15:21;;;;;;;;;7.00;7.00;;;;;26.93;41.34;98818.13;6087973;28;96867;-63
2022/07/22 02:18:25;;;;;;;;;13.00;12.00;;;;;26.90;41.74;98827.09;6086929;28;97429;-59
2022/07/22 02:21:29;;;;;;;;;13.00;12.00;;;;;26.86;41.13;98817.81;6087363;28;96893;-61
2022/07/22 02:24:37;;;;;;;;;13.00;12.00;;;;;26.79;41.31;98823.03;6068922;28;97804;-61
2022/07/22 02:27:42;;;;;;;;;14.00;13.00;;;;;26.71;41.70;98819.16;6088168;28;97245;-61
2022/07/22 02:30:45;;;;;;;;;13.00;13.00;;;;;26.63;41.92;98825.53;6078831;28;96761;-62
2022/07/22 02:33:49;;;;;;;;;15.00;13.00;;;;;26.50;42.02;98807.16;6081216;28;97479;-60
2022/07/22 02:36:53;;;;;;;;;12.20;12.20;;;;;26.53;41.98;98812.88;6088057;28;97490;-61
2022/07/22 02:39:59;;;;;;;;;12.50;11.00;;;;;26.47;42.51;98821.66;6084317;28;97494;-62
2022/07/22 02:43:05;;;;;;;;;14.60;14.60;;;;;26.45;42.31;98826.69;6083997;28;96880;-62
2022/07/22 02:46:09;;;;;;;;;14.80;14.00;;;;;26.49;42.18;98822.94;6085602;28;96429;-63
2022/07/22 02:49:13;;;;;;;;;11.80;11.00;;;;;26.51;42.29;98833.66;6086884;28;97481;-63
2022/07/22 02:52:17;;;;;;;;;14.00;14.00;;;;;26.52;42.31;98833.34;6103960;28;97344;-61
2022/07/22 02:55:22;;;;;;;;;12.60;12.60;;;;;26.53;42.43;98828.63;6083015;28;98593;-60
2022/07/22 02:58:27;;;;;;;;;17.40;15.40;;;;;26.48;42.13;98829.63;6071304;28;97200;-63
2022/07/22 03:01:31;;;;;;;;;13.60;13.00;;;;;26.48;42.11;98835.16;6086957;28;97713;-63
2022/07/22 03:04:36;;;;;;;;;9.25;8.25;;;;;26.45;42.15;98835.78;6086983;28;97970;-62
2022/07/22 03:07:40;;;;;;;;;12.00;10.00;;;;;26.45;42.21;98838.56;6104937;28;97408;-62
2022/07/22 03:10:47;;;;;;;;;12.00;11.00;;;;;26.43;42.13;98849.13;6091046;28;96634;-60
2022/07/22 03:13:50;;;;;;;;;11.00;10.00;;;;;26.43;42.26;98856.63;6090673;28;97455;-61
2022/07/22 03:16:55;;;;;;;;;15.00;14.00;;;;;26.38;42.29;98862.31;6086636;28;98884;-62
2022/07/22 03:19:59;;;;;;;;;16.00;14.40;;;;;26.34;42.51;98872.41;6087781;28;97359;-64
2022/07/22 03:23:04;;;;;;;;;14.00;14.00;;;;;26.29;42.79;98878.91;6104797;28;97381;-61
2022/07/22 03:26:10;;;;;;;;;14.00;14.00;;;;;26.25;42.91;98880.66;6091849;28;97588;-60
2022/07/22 03:29:13;;;;;;;;;15.00;13.00;;;;;26.16;43.43;98877.88;6074472;28;99287;-59
2022/07/22 03:32:17;;;;;;;;;21.80;21.20;;;;;26.10;44.00;98881.09;6090610;28;97485;-56
2022/07/22 03:35:23;;;;;;;;;15.00;13.50;;;;;26.10;43.96;98889.41;6066494;28;96794;-62
2022/07/22 03:38:27;;;;;;;;;16.40;15.40;;;;;26.05;44.16;98875.75;6097527;28;97432;-61
2022/07/22 03:41:33;;;;;;;;;22.00;18.00;;;;;26.04;44.53;98871.38;6089144;28;97378;-62
2022/07/22 03:44:37;;;;;;;;;18.00;18.00;;;;;26.03;44.37;98878.03;6089580;28;97764;-63
2022/07/22 03:47:40;;;;;;;;;19.00;18.00;;;;;26.05;44.43;98871.03;6089374;28;96872;-63
2022/07/22 03:50:44;;;;;;;;;19.00;18.00;;;;;26.02;44.92;98876.41;6082657;28;97280;-61
2022/07/22 03:53:48;;;;;;;;;16.00;15.00;;;;;26.05;44.98;98875.75;6090354;28;97618;-62
2022/07/22 03:56:53;;;;;;;;;18.25;18.25;;;;;26.03;45.24;98876.09;6086836;28;97188;-61
2022/07/22 03:59:56;;;;;;;;;26.40;25.40;;;;;25.99;45.81;98875.13;6106109;28;96495;-57
2022/07/22 04:03:00;;;;;;;;;18.00;17.00;;;;;25.53;45.54;98792.78;6083368;28;97708;-62
2022/07/22 04:06:23;;;;;;;;;23.60;20.80;;;;;26.09;45.84;98885.03;6082404;28;97518;-62
2022/07/22 04:09:34;;;;;;;;;15.75;15.00;;;;;26.08;46.12;98894.44;6089077;28;97444;-63
2022/07/22 04:12:41;;;;;;;;;15.67;14.00;;;;;26.16;46.04;98893.63;6089839;28;96799;-63
2022/07/22 04:15:52;;;;;;;;;19.80;18.00;;;;;26.18;46.41;98894.13;6090021;28;98056;-64
2022/07/22 04:18:56;;;;;;;;;16.40;15.40;;;;;26.23;46.25;98894.84;6088778;28;97496;-60
2022/07/22 04:22:17;;;;;;;;;17.80;17.20;;;;;26.29;46.44;98903.78;6084462;28;97495;-62
2022/07/22 04:25:20;;;;;;;;;16.75;15.50;;;;;26.34;46.59;98895.28;6091010;28;96718;-59
2022/07/22 04:28:25;;;;;;;;;16.40;15.60;;;;;26.40;46.91;98909.78;6088478;28;97456;-57
2022/07/22 04:31:29;;;;;;;;;18.20;16.20;;;;;26.46;47.03;98905.72;6083206;28;97419;-62
2022/07/22 04:34:41;;;;;;;;;17.50;16.00;;;;;26.57;47.00;98901.50;6082540;28;96791;-59
2022/07/22 04:37:45;;;;;;;;;18.75;18.00;;;;;26.71;46.94;98900.19;6087739;28;96799;-58
2022/07/22 04:40:50;;;;;;;;;18.40;17.40;;;;;26.87;46.83;98899.69;6089628;28;97064;-62
2022/07/22 04:43:59;;;;;;;;;16.50;15.50;;;;;26.99;46.70;98903.41;6089730;28;97384;-57
2022/07/22 04:47:05;;;;;;;;;22.00;22.00;;;;;27.06;46.74;98905.69;6086664;28;96834;-60
2022/07/22 04:50:13;;;;;;;;;15.80;15.00;;;;;27.17;46.43;98902.22;6104364;28;96861;-58
2022/07/22 04:53:19;;;;;;;;;16.60;15.60;;;;;27.29;46.19;98901.53;6087596;28;96956;-62
2022/07/22 04:56:43;;;;;;;;;16.00;15.40;;;;;27.44;46.17;98905.72;6085126;28;97823;-62
2022/07/22 04:59:49;;;;;;;;;15.00;14.20;;;;;27.52;45.54;98908.47;6104591;28;96851;-59
2022/07/22 05:02:52;;;;;;;;;15.00;14.00;;;;;27.67;45.22;98903.50;6088741;28;97135;-60
2022/07/22 05:05:56;;;;;;;;;14.00;13.00;;;;;27.72;45.43;98903.31;6088412;28;97317;-60
2022/07/22 05:09:07;;;;;;;;;14.75;14.25;;;;;27.84;45.54;98906.19;6087162;28;97402;-57
2022/07/22 05:12:11;;;;;;;;;15.00;13.40;;;;;27.95;45.53;98911.00;6088375;28;97286;-63
2022/07/22 05:15:16;;;;;;;;;17.00;17.00;;;;;28.00;45.26;98902.50;6102443;28;96569;-65
2022/07/22 05:18:20;;;;;;;;;13.67;11.00;;;;;27.98;45.17;98901.22;6089346;28;96777;-61
2022/07/22 05:21:24;;;;;;;;;21.25;19.50;;;;;28.19;45.14;98907.63;6081173;28;96720;-61
2022/07/22 05:24:27;;;;;;;;;18.80;17.80;;;;;28.44;44.93;98901.06;6083202;28;97667;-60
2022/07/22 05:27:32;;;;;;;;;18.00;18.00;;;;;28.58;44.69;98908.31;6084144;28;97831;-63
2022/07/22 05:30:37;;;;;;;;;17.00;16.60;;;;;28.78;44.17;98899.97;6082825;28;96731;-57
2022/07/22 05:33:42;;;;;;;;;15.75;15.00;;;;;28.96;44.02;98899.81;6084478;28;97558;-56
2022/07/22 05:37:16;;;;;;;;;17.33;17.00;;;;;29.10;43.39;98908.63;6079189;28;96720;-62
2022/07/22 05:40:20;;;;;;;;;19.00;17.00;;;;;29.22;42.82;98906.69;6085509;28;97464;-63
2022/07/22 05:43:24;;;;;;;;;16.00;15.75;;;;;29.35;42.75;98907.56;6098818;28;97890;-66
2022/07/22 05:46:29;;;;;;;;;15.25;15.25;;;;;29.43;42.62;98900.25;6087021;28;97434;-60
2022/07/22 05:49:33;;;;;;;;;21.00;20.00;;;;;29.58;41.95;98905.13;6105513;28;99242;-57
2022/07/22 05:52:41;;;;;;;;;24.00;22.00;;;;;29.74;41.51;98908.84;6077415;28;98596;-58
2022/07/22 05:55:44;;;;;;;;;15.60;14.60;;;;;29.88;41.36;98916.84;6087004;28;97115;-60
2022/07/22 05:58:49;;;;;;;;;17.40;15.00;;;;;29.94;40.79;98916.28;6087699;28;96777;-59
2022/07/22 06:01:55;;;;;;;;;17.60;17.00;;;;;30.01;40.70;98916.50;6078649;28;97418;-56
2022/07/22 06:05:12;;;;;;;;;15.50;14.00;;;;;30.08;40.77;98918.72;6104512;28;97431;-62
2022/07/22 06:08:36;;;;;;;;;21.00;20.00;;;;;30.08;40.50;98921.50;6078976;28;97451;-57
2022/07/22 06:11:39;;;;;;;;;15.75;14.75;;;;;30.15;40.26;98926.47;6078199;28;97455;-66
2022/07/22 06:14:43;;;;;;;;;16.00;15.80;;;;;30.17;40.12;98921.34;6081702;28;97432;-55
2022/07/22 06:17:48;;;;;;;;;19.00;18.00;;;;;30.17;39.81;98913.81;6070307;28;99004;-61
2022/07/22 06:20:52;;;;;;;;;17.00;15.80;;;;;30.21;39.78;98908.38;6080264;28;97233;-61
2022/07/22 06:23:55;;;;;;;;;16.00;15.00;;;;;30.22;39.65;98912.78;6086619;28;97282;-60
2022/07/22 06:26:59;;;;;;;;;19.60;19.60;;;;;30.32;40.02;98923.41;6087778;28;97154;-60
2022/07/22 06:30:03;;;;;;;;;19.60;19.40;;;;;30.38;39.56;98908.91;6064609;28;97184;-55
2022/07/22 06:33:08;;;;;;;;;19.40;18.40;;;;;30.48;39.76;98921.56;6085254;28;97577;-58
2022/07/22 06:36:14;;;;;;;;;19.00;19.00;;;;;30.53;39.51;98916.56;6088255;28;96952;-55
2022/07/22 06:39:17;;;;;;;;;18.00;17.00;;;;;30.63;39.14;98915.25;6077682;28;98091;-55
2022/07/22 06:42:40;;;;;;;;;24.60;23.60;;;;;30.75;38.31;98914.38;6087394;28;97735;-60
2022/07/22 06:46:03;;;;;;;;;17.40;16.00;;;;;30.87;38.89;98925.47;6091969;28;98517;-60
2022/07/22 06:49:20;;;;;;;;;23.20;21.40;;;;;31.04;38.57;98916.81;6089844;28;97850;-59
2022/07/22 06:52:27;;;;;;;;;19.20;17.20;;;;;31.17;38.52;98909.22;6091154;28;96695;-57
2022/07/22 06:55:32;;;;;;;;;19.00;18.00;;;;;31.33;37.93;98898.88;6092105;28;97474;-56
2022/07/22 06:58:41;;;;;;;;;19.80;17.20;;;;;31.50;37.51;98904.13;6078352;28;98076;-65
2022/07/22 07:01:46;;;;;;;;;21.60;18.60;;;;;31.65;37.24;98908.91;6070732;28;96899;-56
2022/07/22 07:04:53;;;;;;;;;19.40;17.60;;;;;31.82;36.94;98911.31;6085636;28;97083;-54
2022/07/22 07:07:57;;;;;;;;;20.00;19.00;;;;;32.00;36.62;98916.50;6084643;28;98746;-57
2022/07/22 07:11:01;;;;;;;;;20.00;19.00;;;;;32.17;36.18;98918.91;6100203;28;96694;-59
2022/07/22 07:14:05;;;;;;;;;20.00;19.00;;;;;32.00;35.88;98875.50;6102206;28;96793;-56
2022/07/22 07:17:08;;;;;;;;;19.00;18.00;;;;;32.42;35.73;98922.25;6102739;28;97505;-57
2022/07/22 07:20:16;;;;;;;;;22.00;20.40;;;;;32.54;35.21;98917.38;6098676;28;97132;-56
2022/07/22 07:23:19;;;;;;;;;21.60;21.00;;;;;32.67;35.48;98921.66;6087495;28;97765;-58
2022/07/22 07:26:24;;;;;;;;;19.20;18.20;;;;;32.76;35.14;98926.19;6090131;28;97430;-56
2022/07/22 07:29:28;;;;;;;;;19.60;19.00;;;;;32.83;35.09;98923.56;6088297;28;98097;-57
2022/07/22 07:32:32;;;;;;;;;18.67;18.67;;;;;32.97;34.94;98921.06;6088818;28;97398;-59
2022/07/22 07:35:37;;;;;;;;;22.00;22.00;;;;;33.12;34.72;98916.53;6089588;28;97605;-61
2022/07/22 07:38:40;;;;;;;;;25.00;24.00;;;;;33.28;34.97;98906.13;6085178;28;96994;-57
2022/07/22 07:41:48;;;;;;;;;21.00;20.25;;;;;33.45;34.50;98916.78;6083224;28;96873;-58
2022/07/22 07:44:58;;;;;;;;;20.20;19.00;;;;;33.61;34.17;98922.25;6089813;28;97371;-56
2022/07/22 07:48:03;;;;;;;;;23.00;20.00;;;;;33.68;33.47;98920.41;6087956;28;96925;-65
2022/07/22 07:51:08;;;;;;;;;23.00;21.25;;;;;33.76;33.31;98922.16;6087608;28;97509;-57
2022/07/22 07:54:12;;;;;;;;;22.60;21.00;;;;;33.86;33.92;98929.91;6089253;28;97771;-57
2022/07/22 07:57:19;;;;;;;;;21.40;20.60;;;;;34.00;33.44;98934.09;6090175;28;96700;-56
2022/07/22 08:00:28;;;;;;;;;21.00;19.60;;;;;34.02;33.19;98914.94;6072655;28;99416;-58
2022/07/22 08:03:32;;;;;;;;;23.25;23.25;;;;;34.18;33.00;98930.41;6091058;28;96752;-59
2022/07/22 08:06:38;;;;;;;;;21.50;21.25;;;;;34.26;33.11;98912.53;6090871;28;97430;-58
2022/07/22 08:09:44;;;;;;;;;21.00;20.00;;;;;34.39;33.63;98918.72;6089596;28;97079;-58
2022/07/22 08:13:25;;;;;;;;;22.00;21.00;;;;;34.53;32.93;98924.50;6088710;28;97261;-57
2022/07/22 08:16:42;;;;;;;;;25.40;23.80;;;;;34.68;32.80;98926.34;6085784;28;98640;-57
2022/07/22 08:19:47;;;;;;;;;26.00;24.00;;;;;34.80;32.66;98933.66;6089062;28;97326;-58
2022/07/22 08:22:53;;;;;;;;;24.20;23.00;;;;;34.93;32.50;98934.25;6089207;28;96865;-56
2022/07/22 08:25:59;;;;;;;;;23.00;21.75;;;;;34.99;32.13;98932.72;6089699;28;97133;-53
2022/07/22 08:29:03;;;;;;;;;19.60;17.20;;;;;35.07;31.88;98943.63;6088000;28;97401;-59
2022/07/22 08:32:07;;;;;;;;;21.60;20.60;;;;;35.15;31.65;98936.88;6089341;28;96952;-56
2022/07/22 08:35:10;;;;;;;;;22.25;21.25;;;;;35.22;31.79;98949.41;6089507;28;97575;-60
2022/07/22 08:38:16;;;;;;;;;23.00;22.00;;;;;35.29;31.82;98941.06;6087324;28;96889;-58
2022/07/22 08:41:23;;;;;;;;;26.00;25.60;;;;;35.32;31.47;98937.50;6088129;28;97545;-59
2022/07/22 08:44:30;;;;;;;;;21.00;19.00;;;;;35.38;31.82;98936.78;6089376;28;97432;-57
2022/07/22 08:47:34;;;;;;;;;20.60;20.00;;;;;35.38;31.49;98953.59;6089252;28;97505;-55
2022/07/22 08:51:12;;;;;;;;;20.80;20.80;;;;;35.35;31.30;98951.53;6086537;28;96897;-53
2022/07/22 08:54:29;;;;;;;;;20.25;19.25;;;;;35.36;31.43;98955.97;6089396;28;96562;-59
2022/07/22 08:57:36;;;;;;;;;25.00;24.25;;;;;35.42;31.32;98957.22;6089184;28;96480;-59
2022/07/22 09:00:41;;;;;;;;;20.50;19.00;;;;;35.35;31.17;98931.91;6089050;28;96794;-59
2022/07/22 09:03:49;;;;;;;;;20.40;19.40;;;;;35.56;30.50;98960.16;6104358;28;96992;-58
2022/07/22 09:06:53;;;;;;;;;22.00;20.40;;;;;35.66;30.90;98955.06;6072421;28;97896;-60
2022/07/22 09:10:00;;;;;;;;;21.50;21.00;;;;;35.75;30.79;98949.94;6089131;28;98054;-62
2022/07/22 09:13:24;;;;;;;;;23.40;22.00;;;;;35.90;30.81;98948.88;6085504;28;97586;-58
2022/07/22 09:16:43;;;;;;;;;23.00;23.00;;;;;35.98;30.76;98947.72;6086823;28;96571;-58
2022/07/22 09:20:16;;;;;;;;;22.00;19.00;;;;;35.98;30.46;98947.72;6085430;28;97409;-58
2022/07/22 09:23:47;;;;;;;;;20.00;19.00;;;;;36.05;30.69;98945.78;6086696;28;97432;-58
2022/07/22 09:26:56;;;;;;;;;25.00;24.00;;;;;36.17;30.76;98955.09;6096544;28;96663;-60
2022/07/22 09:30:14;;;;;;;;;25.50;23.25;;;;;36.21;30.33;98955.94;6104909;28;97293;-59
2022/07/22 09:33:47;;;;;;;;;26.00;25.60;;;;;36.21;29.65;98951.16;6087288;28;98426;-58
2022/07/22 09:37:04;;;;;;;;;24.00;23.00;;;;;36.25;30.26;98956.78;6087999;28;96824;-58
2022/07/22 09:40:15;;;;;;;;;23.00;23.00;;;;;36.29;29.77;98952.78;6089674;28;97342;-60
2022/07/22 09:43:23;;;;;;;;;24.00;23.00;;;;;36.28;30.34;98961.59;6080118;28;98202;-61
2022/07/22 09:46:38;;;;;;;;;23.00;21.33;;;;;36.31;30.59;98964.41;6088408;28;97670;-59
2022/07/22 09:49:57;;;;;;;;;25.40;24.40;;;;;36.38;30.19;98952.44;6087200;28;96660;-58
2022/07/22 09:53:14;;;;;;;;;25.00;22.00;;;;;36.44;30.12;98959.31;6076805;28;97499;-59
2022/07/22 09:56:29;;;;;;;;;24.25;23.25;;;;;36.54;30.17;98964.19;6088144;28;97488;-59
2022/07/22 09:59:36;;;;;;;;;23.00;23.00;;;;;36.67;30.34;98953.41;6089355;28;96574;-57
2022/07/22 10:03:01;;;;;;;;;22.75;21.00;;;;;36.83;29.91;98957.53;6086540;28;97443;-58
2022/07/22 10:06:10;;;;;;;;;20.00;20.00;;;;;36.93;29.92;98955.97;6086868;28;96635;-56
2022/07/22 10:09:17;;;;;;;;;24.00;23.00;;;;;37.03;29.67;98958.00;6087174;28;97313;-58
2022/07/22 10:12:24;;;;;;;;;26.60;25.00;;;;;37.17;29.85;98948.84;6088158;28;96656;-58
2022/07/22 10:15:33;;;;;;;;;23.00;22.00;;;;;37.28;29.60;98961.72;6088975;28;96695;-55
2022/07/22 10:18:47;;;;;;;;;24.00;21.00;;;;;37.41;29.55;98958.53;6092666;28;97167;-57
2022/07/22 10:22:01;;;;;;;;;26.40;25.00;;;;;37.50;28.94;98958.94;6090834;28;98679;-61
2022/07/22 10:25:09;;;;;;;;;22.00;21.40;;;;;37.50;29.19;98956.13;6091841;28;97316;-61
2022/07/22 10:31:45;;;;;;;;;25.00;23.00;;;;;37.64;28.77;98959.78;6088924;28;97098;-62
2022/07/22 10:35:23;;;;;;;;;25.00;22.00;;;;;37.61;28.69;98960.59;6090986;28;97061;-61
2022/07/22 10:38:30;;;;;;;;;25.00;23.00;;;;;37.60;29.08;98963.81;6085067;28;98151;-59
2022/07/22 10:41:36;;;;;;;;;25.00;25.00;;;;;37.65;28.74;98955.78;6069674;28;96493;-58
2022/07/22 10:44:50;;;;;;;;;26.00;24.60;;;;;37.78;28.63;98952.56;6071101;28;97336;-57
2022/07/22 10:48:05;;;;;;;;;24.40;23.00;;;;;37.65;28.67;98930.44;6072683;28;96986;-59
2022/07/22 10:51:10;;;;;;;;;26.00;24.00;;;;;37.91;29.19;98948.16;6073199;28;97531;-60
2022/07/22 10:54:13;;;;;;;;;26.50;25.25;;;;;37.98;28.45;98940.50;6078656;28;97032;-58
2022/07/22 10:57:31;;;;;;;;;25.00;24.00;;;;;37.81;28.34;98912.38;6075467;28;97464;-60
2022/07/22 11:00:40;;;;;;;;;27.20;26.20;;;;;38.02;28.46;98946.16;6073740;28;97460;-63
2022/07/22 11:03:46;;;;;;;;;27.00;25.00;;;;;38.03;28.90;98942.94;6082600;28;97491;-61
2022/07/22 11:06:51;;;;;;;;;28.00;26.40;;;;;38.07;28.33;98935.28;6074403;28;97358;-58
2022/07/22 11:09:55;;;;;;;;;24.00;24.00;;;;;38.17;28.52;98931.63;6076317;28;97235;-59
2022/07/22 11:12:59;;;;;;;;;26.00;24.00;;;;;38.30;28.92;98934.84;6074664;28;97446;-58
2022/07/22 11:16:20;;;;;;;;;26.50;25.50;;;;;38.46;28.39;98935.22;6090671;28;96541;-60
2022/07/22 11:19:27;;;;;;;;;27.00;25.80;;;;;38.55;28.21;98918.72;6090996;28;97506;-59
2022/07/22 11:22:31;;;;;;;;;25.25;24.25;;;;;38.68;28.21;98921.88;6091534;28;97371;-59
2022/07/22 11:25:35;;;;;;;;;25.80;24.20;;;;;38.76;28.08;98920.63;6091670;28;96503;-58
2022/07/22 11:28:40;;;;;;;;;22.25;21.25;;;;;38.79;28.05;98916.19;6088193;28;98254;-60
2022/07/22 11:31:44;;;;;;;;;23.00;22.00;;;;;38.82;27.95;98916.19;6088432;28;97081;-59
2022/07/22 11:34:49;;;;;;;;;25.00;24.00;;;;;38.88;27.95;98919.41;6091153;28;97619;-60
2022/07/22 11:37:58;;;;;;;;;24.00;23.00;;;;;38.92;27.72;98909.72;6091172;28;97314;-60
2022/07/22 11:41:02;;;;;;;;;26.60;24.20;;;;;38.94;27.66;98912.94;6090147;28;97617;-58
2022/07/22 11:44:06;;;;;;;;;30.00;26.00;;;;;38.93;27.98;98905.69;6090938;28;97422;-60
2022/07/22 11:47:11;;;;;;;;;26.40;24.60;;;;;38.68;27.70;98882.44;6090168;28;97505;-60
2022/07/22 11:50:17;;;;;;;;;23.00;22.60;;;;;38.90;27.85;98903.66;6090594;28;97978;-58
2022/07/22 11:53:21;;;;;;;;;28.00;26.40;;;;;38.92;27.93;98898.44;6089031;28;97652;-57
2022/07/22 11:56:25;;;;;;;;;25.00;22.20;;;;;38.89;27.32;98890.00;6090270;28;96769;-61
2022/07/22 11:59:29;;;;;;;;;26.00;25.00;;;;;38.97;27.04;98895.19;6090876;28;96507;-60
2022/07/22 12:02:32;;;;;;;;;24.40;22.40;;;;;39.02;27.34;98882.69;6090218;28;97271;-59
2022/07/22 12:05:41;;;;;;;;;24.80;22.00;;;;;39.10;28.02;98887.03;6091238;28;97572;-58
2022/07/22 12:08:47;;;;;;;;;26.00;25.00;;;;;39.19;27.57;98892.25;6088034;28;97335;-57
2022/07/22 12:11:52;;;;;;;;;26.00;24.20;;;;;39.21;27.20;98884.97;6086931;28;97543;-60
2022/07/22 12:14:58;;;;;;;;;23.80;22.80;;;;;39.27;27.01;98874.06;6091234;28;97138;-57
2022/07/22 12:18:16;;;;;;;;;25.00;24.40;;;;;39.39;27.66;98882.06;6090603;28;98020;-58
2022/07/22 12:21:22;;;;;;;;;25.80;24.80;;;;;39.42;26.89;98876.38;6085934;28;96581;-57
2022/07/22 12:24:31;;;;;;;;;24.20;23.00;;;;;39.37;26.31;98871.19;6089189;28;97445;-58
2022/07/22 12:27:36;;;;;;;;;27.00;25.67;;;;;39.35;27.02;98865.16;6081469;28;96837;-58
2022/07/22 12:30:40;;;;;;;;;25.00;24.00;;;;;39.37;27.45;98862.72;6090977;28;97402;-59
2022/07/22 12:33:50;;;;;;;;;27.40;25.40;;;;;39.35;26.88;98858.69;6090567;28;97202;-59
2022/07/22 12:36:54;;;;;;;;;24.00;23.60;;;;;39.27;26.75;98846.66;6091262;28;97336;-57
2022/07/22 12:40:02;;;;;;;;;25.00;25.00;;;;;39.20;26.73;98846.69;6090464;28;96729;-59
2022/07/22 12:43:08;;;;;;;;;25.80;25.00;;;;;39.04;27.12;98823.06;6090414;28;96804;-59
2022/07/22 12:46:11;;;;;;;;;30.00;28.00;;;;;39.15;27.36;98840.69;6090500;28;97368;-58
2022/07/22 12:49:18;;;;;;;;;28.00;26.00;;;;;39.12;27.61;98828.22;6087211;28;96679;-57
2022/07/22 12:52:23;;;;;;;;;22.33;22.33;;;;;39.09;26.91;98834.72;6090872;28;97295;-58
2022/07/22 12:55:27;;;;;;;;;24.00;23.00;;;;;39.09;26.99;98834.72;6088828;28;96854;-55
2022/07/22 12:58:32;;;;;;;;;27.40;25.00;;;;;39.13;27.47;98829.84;6089220;28;97370;-60
2022/07/22 13:01:36;;;;;;;;;27.40;25.40;;;;;39.19;27.27;98833.84;6089645;28;97428;-57
2022/07/22 13:04:40;;;;;;;;;22.00;21.20;;;;;39.23;27.04;98823.31;6090372;28;97946;-58
2022/07/22 13:07:46;;;;;;;;;28.60;28.00;;;;;39.32;26.44;98831.34;6086929;28;97860;-58
2022/07/22 13:10:50;;;;;;;;;28.00;26.00;;;;;39.38;26.75;98809.94;6088815;28;98074;-57
2022/07/22 13:13:53;;;;;;;;;27.00;24.00;;;;;39.46;26.75;98821.94;6089057;28;96957;-59
2022/07/22 13:16:57;;;;;;;;;27.20;24.60;;;;;39.52;26.44;98823.91;6089324;28;96473;-58
2022/07/22 13:20:00;;;;;;;;;23.20;22.00;;;;;39.57;26.10;98809.34;6090189;28;97303;-59
2022/07/22 13:23:05;;;;;;;;;25.80;24.00;;;;;39.58;26.01;98818.63;6089522;28;97466;-57
2022/07/22 13:26:09;;;;;;;;;24.75;24.00;;;;;39.60;26.31;98807.72;6090223;28;97030;-59
2022/07/22 13:29:12;;;;;;;;;26.80;25.80;;;;;39.58;26.20;98799.69;6089289;28;97168;-60
2022/07/22 13:32:15;;;;;;;;;25.00;24.00;;;;;39.54;26.24;98806.56;6084670;28;97160;-59
2022/07/22 13:35:26;;;;;;;;;22.25;21.25;;;;;39.42;26.59;98796.59;6089079;28;97483;-63
2022/07/22 13:38:30;;;;;;;;;26.00;26.00;;;;;39.40;26.14;98799.81;6089523;28;97456;-56
2022/07/22 13:41:35;;;;;;;;;24.75;24.75;;;;;39.34;25.86;98800.72;6089377;28;97018;-58
2022/07/22 13:44:38;;;;;;;;;25.60;25.60;;;;;39.28;26.17;98796.69;6077281;28;96850;-59
2022/07/22 13:47:44;;;;;;;;;25.40;23.40;;;;;39.24;26.26;98795.94;6090082;28;97041;-58
2022/07/22 13:50:48;;;;;;;;;26.00;25.00;;;;;39.25;26.40;98789.03;6088857;28;98710;-56
2022/07/22 13:53:53;;;;;;;;;23.75;23.00;;;;;39.30;26.58;98788.59;6089776;28;98067;-58
2022/07/22 13:57:00;;;;;;;;;28.00;26.25;;;;;39.32;26.37;98784.19;6089963;28;97077;-57
2022/07/22 14:00:04;;;;;;;;;23.20;21.80;;;;;39.33;26.26;98782.19;6090192;28;97477;-61
2022/07/22 14:03:14;;;;;;;;;26.60;24.00;;;;;39.35;26.51;98779.72;6089741;28;97335;-60
2022/07/22 14:06:18;;;;;;;;;26.60;25.60;;;;;39.33;26.07;98777.34;6089521;28;97139;-57
2022/07/22 14:09:23;;;;;;;;;23.80;23.20;;;;;39.30;25.93;98771.69;6087815;28;96766;-60
2022/07/22 14:12:43;;;;;;;;;24.00;23.00;;;;;39.26;26.05;98766.06;6089817;28;96670;-59
2022/07/22 14:15:46;;;;;;;;;24.00;22.00;;;;;39.29;26.59;98770.09;6088511;28;98215;-60
2022/07/22 14:18:49;;;;;;;;;25.00;24.00;;;;;39.30;26.37;98775.31;6089758;28;97008;-60
2022/07/22 14:21:53;;;;;;;;;21.60;21.00;;;;;39.30;26.26;98777.31;6089816;28;96722;-57
2022/07/22 14:24:58;;;;;;;;;22.40;21.00;;;;;39.27;26.16;98769.69;6089742;28;97120;-59